sensor_id;sensor_type;location;lat;lon;timestamp;temperature;humidity
12374;DHT22;6251;51.762;8.660;2022-08-30T01:09:49;13.90;99.90
12374;DHT22;6251;51.762;8.660;2022-08-30T02:51:55;13.20;99.90
12374;DHT22;6251;51.762;8.660;2022-08-30T04:23:19;12.60;99.90
12374;DHT22;6251;51.762;8.660;2022-08-30T04:33:20;12.50;99.90
12374;DHT22;6251;51.762;8.660;2022-08-30T04:43:21;12.40;99.90
12374;DHT22;6251;51.762;8.660;2022-08-30T04:53:21;12.30;99.90
12374;DHT22;6251;51.762;8.660;2022-08-30T05:03:22;12.30;99.90
12374;DHT22;6251;51.762;8.660;2022-08-30T05:13:23;12.30;99.90
12374;DHT22;6251;51.762;8.660;2022-08-30T05:23:23;12.50;99.90
12374;DHT22;6251;51.762;8.660;2022-08-30T05:33:24;12.60;99.90
12374;DHT22;6251;51.762;8.660;2022-08-30T05:43:25;12.70;99.90
12374;DHT22;6251;51.762;8.660;2022-08-30T05:53:25;12.90;99.90
12374;DHT22;6251;51.762;8.660;2022-08-30T06:03:27;13.00;99.90
12374;DHT22;6251;51.762;8.660;2022-08-30T06:13:28;13.20;99.90
12374;DHT22;6251;51.762;8.660;2022-08-30T07:28:32;15.40;99.90
12374;DHT22;6251;51.762;8.660;2022-08-30T07:38:55;15.80;99.90
12374;DHT22;6251;51.762;8.660;2022-08-30T07:48:58;16.20;99.90
12374;DHT22;6251;51.762;8.660;2022-08-30T08:09:09;16.80;99.90
12374;DHT22;6251;51.762;8.660;2022-08-30T08:19:10;17.10;99.90
12374;DHT22;6251;51.762;8.660;2022-08-30T08:29:36;17.40;99.90
12374;DHT22;6251;51.762;8.660;2022-08-30T09:01:33;18.30;99.90
12374;DHT22;6251;51.762;8.660;2022-08-30T09:11:34;18.50;99.90
12374;DHT22;6251;51.762;8.660;2022-08-30T09:21:36;18.80;99.90
12374;DHT22;6251;51.762;8.660;2022-08-30T09:31:50;19.00;99.90
12374;DHT22;6251;51.762;8.660;2022-08-30T09:41:53;19.20;99.90
12374;DHT22;6251;51.762;8.660;2022-08-30T09:52:17;19.50;99.90
12374;DHT22;6251;51.762;8.660;2022-08-30T10:23:14;20.30;99.90
12374;DHT22;6251;51.762;8.660;2022-08-30T10:33:25;20.50;99.90
12374;DHT22;6251;51.762;8.660;2022-08-30T10:44:00;20.70;99.90
12374;DHT22;6251;51.762;8.660;2022-08-30T10:54:29;20.80;99.90
12374;DHT22;6251;51.762;8.660;2022-08-30T11:05:03;21.10;99.90
12374;DHT22;6251;51.762;8.660;2022-08-30T11:15:16;21.30;99.90
12374;DHT22;6251;51.762;8.660;2022-08-30T11:35:58;22.20;99.90
12374;DHT22;6251;51.762;8.660;2022-08-30T11:56:27;23.30;99.90
12374;DHT22;6251;51.762;8.660;2022-08-30T12:06:44;23.50;99.90
12374;DHT22;6251;51.762;8.660;2022-08-30T12:16:46;24.10;99.90
12374;DHT22;6251;51.762;8.660;2022-08-30T12:27:29;24.80;99.90
12374;DHT22;6251;51.762;8.660;2022-08-30T12:37:38;25.10;99.90
12374;DHT22;6251;51.762;8.660;2022-08-30T12:58:07;24.70;99.90
12374;DHT22;6251;51.762;8.660;2022-08-30T13:08:24;24.50;99.90
12374;DHT22;6251;51.762;8.660;2022-08-30T13:18:27;24.10;99.90
12374;DHT22;6251;51.762;8.660;2022-08-30T13:28:42;23.90;99.90
12374;DHT22;6251;51.762;8.660;2022-08-30T13:38:43;24.00;99.90
12374;DHT22;6251;51.762;8.660;2022-08-30T13:48:43;24.30;99.90
12374;DHT22;6251;51.762;8.660;2022-08-30T13:58:44;24.50;99.90
12374;DHT22;6251;51.762;8.660;2022-08-30T14:08:45;24.60;99.90
12374;DHT22;6251;51.762;8.660;2022-08-30T14:18:46;24.80;99.90
12374;DHT22;6251;51.762;8.660;2022-08-30T14:28:47;24.90;99.90
12374;DHT22;6251;51.762;8.660;2022-08-30T14:38:48;24.80;99.90
12374;DHT22;6251;51.762;8.660;2022-08-30T14:48:49;24.80;99.50
12374;DHT22;6251;51.762;8.660;2022-08-30T14:58:51;24.90;99.10
12374;DHT22;6251;51.762;8.660;2022-08-30T15:08:53;24.90;98.60
12374;DHT22;6251;51.762;8.660;2022-08-30T15:18:54;24.90;99.10
12374;DHT22;6251;51.762;8.660;2022-08-30T15:28:56;24.90;99.60
12374;DHT22;6251;51.762;8.660;2022-08-30T15:38:56;24.80;99.00
12374;DHT22;6251;51.762;8.660;2022-08-30T15:49:07;24.40;97.50
12374;DHT22;6251;51.762;8.660;2022-08-30T15:59:09;24.00;98.40
12374;DHT22;6251;51.762;8.660;2022-08-30T16:09:10;23.70;96.60
12374;DHT22;6251;51.762;8.660;2022-08-30T16:19:11;23.50;98.70
12374;DHT22;6251;51.762;8.660;2022-08-30T16:29:12;23.30;98.00
12374;DHT22;6251;51.762;8.660;2022-08-30T16:39:13;23.00;99.40
12374;DHT22;6251;51.762;8.660;2022-08-30T16:49:14;22.80;98.00
12374;DHT22;6251;51.762;8.660;2022-08-30T16:59:14;22.60;96.80
12374;DHT22;6251;51.762;8.660;2022-08-30T17:09:16;22.40;98.50
12374;DHT22;6251;51.762;8.660;2022-08-30T17:19:18;22.20;98.40
12374;DHT22;6251;51.762;8.660;2022-08-30T17:29:18;22.00;99.30
12374;DHT22;6251;51.762;8.660;2022-08-30T17:39:20;21.80;99.70
12374;DHT22;6251;51.762;8.660;2022-08-30T17:49:21;21.50;99.90
12374;DHT22;6251;51.762;8.660;2022-08-30T17:59:23;21.30;99.90
12374;DHT22;6251;51.762;8.660;2022-08-30T18:09:24;20.90;99.90
12374;DHT22;6251;51.762;8.660;2022-08-30T18:19:26;20.70;99.90
12374;DHT22;6251;51.762;8.660;2022-08-30T18:29:27;20.30;99.90
12374;DHT22;6251;51.762;8.660;2022-08-30T18:39:30;20.00;99.90
12374;DHT22;6251;51.762;8.660;2022-08-30T18:49:33;19.70;99.90
12374;DHT22;6251;51.762;8.660;2022-08-30T18:59:34;19.40;99.90
12374;DHT22;6251;51.762;8.660;2022-08-30T19:09:35;19.10;99.90
12374;DHT22;6251;51.762;8.660;2022-08-30T19:19:36;18.80;99.90
12374;DHT22;6251;51.762;8.660;2022-08-30T19:29:38;18.50;99.90
12374;DHT22;6251;51.762;8.660;2022-08-30T19:39:38;18.30;99.90
12374;DHT22;6251;51.762;8.660;2022-08-30T19:49:39;18.00;99.90
12374;DHT22;6251;51.762;8.660;2022-08-30T19:59:40;17.80;99.90
12374;DHT22;6251;51.762;8.660;2022-08-30T20:09:40;17.60;99.90
12374;DHT22;6251;51.762;8.660;2022-08-30T20:19:41;17.40;99.90
12374;DHT22;6251;51.762;8.660;2022-08-30T20:29:42;17.20;99.90
12374;DHT22;6251;51.762;8.660;2022-08-30T20:39:42;17.00;99.90
12374;DHT22;6251;51.762;8.660;2022-08-30T20:49:43;16.90;99.90
12374;DHT22;6251;51.762;8.660;2022-08-30T20:59:44;16.80;99.90
